Terminal Aerodrome Forecast
Issued by NWS

Home | Current Version | Previous Version | Graphics & Text | Print | Product List | Glossary On
Versions: 1 2 3 4 5 6 7 8 9 10 11 12 13 14 15 16 17 18 19 20 21
000
FTUS43 KGRB 211559 AAA
TAFAUW
TAF AMD
KAUW 211559Z 2116/2212 19005KT P6SM VCSH FEW030 SCT050 BKN060
     FM211700 18011G21KT P6SM SCT030 BKN060
     FM212200 18011G16KT P6SM BKN070 WS020/21045KT
     FM220000 17010KT P6SM BKN050 WS020/21045KT
     FM220700 18009KT P6SM -SHRA OVC035 WS020/21040KT
     FM221000 22006KT 5SM -SHRA OVC026 WS020/22040KT=

USA.gov is the U.S. government's official web portal to all federal, state and local government web resources and services.